ADDS METAR Data INFO
IDs: Format: Raw Decoded Include TAF

Data at: 0308 UTC 16 Aug 2018

PAWD 160253Z AUTO 14004KT 2 1/2SM -RA BR FEW015 BKN038 OVC046 12/12 A2994 RMK AO2 RAB0158 SLP140 P0005 60014 T01220122 53001 TSNO
PAWD 160249Z AUTO 14004KT 2 1/2SM -RA BR FEW015 BKN035 OVC046 12/12 A2994 RMK AO2 RAB0158 P0005 TSNO
PAWD 160153Z AUTO 15005KT 10SM FEW033 OVC041 12/12 A2994 RMK AO2 RAE53 SLP139 P0007 T01220122 TSNO
PAWD 160123Z AUTO 17007KT 5SM -RA BR BKN033 BKN040 OVC046 13/12 A2994 RMK AO2 P0005 T01280122 TSNO
PAWD 160111Z AUTO 17007KT 2 1/2SM -RA BR FEW023 BKN031 OVC055 13/12 A2994 RMK AO2 P0004 T01280122 TSNO
PAWD 160100Z AUTO 14005KT 1 3/4SM RA BR FEW031 BKN042 OVC055 13/12 A2994 RMK AO2 P0002 T01280122 TSNO
PAWD 160053Z AUTO 14006KT 5SM -RA BR FEW019 SCT044 OVC055 13/12 A2994 RMK AO2 SLP139 P0002 T01280122 TSNO
PAWD 152353Z AUTO 15008KT 4SM -RA BR BKN043 OVC055 13/12 A2995 RMK AO2 SLP141 P0003 60003 T01330122 10156 20117 51004 TSNO
PAWD 152253Z AUTO 16011KT 10SM -RA FEW045 OVC060 14/12 A2994 RMK AO2 RAB51 SLP140 P0000 T01390117 TSNO
PAWD 152153Z AUTO 16007KT 10SM BKN060 OVC085 15/12 A2994 RMK AO2 SLP138 T01500122 TSNO
PAWD 152053Z AUTO 17004KT 10SM FEW048 SCT075 14/12 A2993 RMK SLP137 60000 T01440122 51003 TSNO VIA AUTODIAL
PAWD 151953Z AUTO 00000KT 10SM OVC070 14/12 A2993 RMK SLP135 T01390117 TSNO VIA AUTODIAL
PAWD 151853Z AUTO 18003KT 10SM SCT048 OVC065 12/11 A2993 RMK AO2 RAB30E40 SLP135 P0000 T01220111 TSNO
PAWD 151753Z AUTO 00000KT 10SM FEW038 OVC048 13/12 A2992 RMK AO2 SLP133 60004 T01280122 10128 20094 51006 TSNO
PAWD 151703Z AUTO 00000KT 10SM SCT020 BKN033 OVC060 12/12 A2992 RMK AO2 T01220122 TSNO
PAWD 151653Z AUTO 00000KT 10SM BKN020 BKN033 OVC050 12/12 A2992 RMK AO2 SLP132 T01170117 TSNO
PAWD 151611Z AUTO 36003KT 10SM OVC016 11/11 A2992 RMK AO2 T01060106 TSNO
PAWD 151553Z AUTO 34003KT 10SM BKN014 OVC021 11/11 A2991 RMK AO2 RAE45 SLP130 P0002 T01060106 TSNO
PAWD 151543Z AUTO 35003KT 6SM -RA BR BKN013 BKN022 OVC038 11/11 A2991 RMK AO2 P0002 T01060106 TSNO
PAWD 151533Z AUTO 35004KT 3SM -RA BR SCT014 BKN038 OVC046 11/11 A2991 RMK AO2 P0002 T01060106 TSNO
PAWD 151520Z AUTO 31003KT 2SM -RA BR BKN035 OVC042 10/10 A2991 RMK AO2 P0002 T01000100 TSNO
PAWD 151453Z AUTO 00000KT 4SM -RA BR BKN037 OVC043 10/10 A2991 RMK AO2 RAB19 SLP127 P0002 60002 T01000100 53003 TSNO
PAWD 151440Z AUTO 00000KT 4SM -RA BR SCT030 OVC037 10/10 A2991 RMK AO2 RAB19 P0002 T01000100 TSNO
PAWD 151425Z AUTO 00000KT 4SM -RA BR BKN027 OVC040 10/10 A2990 RMK AO2 RAB19 P0001 T01000100 TSNO
PAWD 151416Z AUTO 00000KT 10SM BKN025 OVC039 10/10 A2990 RMK AO2 T01000100 TSNO
PAWD 151353Z AUTO 00000KT 10SM OVC039 10/10 A2990 RMK AO2 SLP126 T01000100 TSNO
PAWD 151343Z AUTO 00000KT 10SM SCT016 OVC037 10/10 A2990 RMK AO2 T01000100 TSNO
PAWD 151253Z AUTO 00000KT 10SM BKN017 OVC040 10/10 A2990 RMK AO2 SLP124 T01000100 TSNO
PAWD 151153Z AUTO 00000KT 10SM BKN020 OVC085 09/09 A2990 RMK AO2 SLP124 T00940094 10122 20094 53006 TSNO
PAWD 151106Z AUTO 00000KT 10SM BKN019 10/10 A2989 RMK AO2 T01000100 TSNO
PAWD 151053Z AUTO 00000KT 10SM FEW019 SCT110 11/11 A2989 RMK AO2 SLP122 T01060106 TSNO
PAWD 150953Z AUTO 00000KT 10SM OVC060 11/11 A2988 RMK AO2 SLP119 T01110111 TSNO
PAWD 150853Z AUTO 00000KT 10SM FEW050 OVC060 11/11 A2988 RMK AO2 SLP118 T01110111 401560089 52014 TSNO
PAWD 150753Z AUTO 00000KT 10SM OVC060 11/11 A2987 RMK AO2 SLP114 T01110111 TSNO
PAWD 150653Z AUTO 00000KT 10SM OVC050 11/10 A2985 RMK AO2 SLP109 T01110100 TSNO
PAWD 150553Z AUTO 00000KT 10SM BKN046 BKN075 12/11 A2984 RMK AO2 SLP104 T01170106 10150 20117 53009 TSNO
PAWD 150453Z AUTO 00000KT 10SM BKN070 14/10 A2983 RMK AO2 SLP101 T01390100 TSNO
PAWD 150353Z AUTO 00000KT 10SM BKN055 OVC080 14/11 A2982 RMK AO2 SLP097 T01440111 TSNO
PAWD 150253Z AUTO 00000KT 10SM OVC050 14/11 A2981 RMK AO2 SLP095 T01440111 51006 TSNO
PAWD 150153Z AUTO 16003KT 10SM OVC055 14/12 A2981 RMK AO2 SLP094 T01390117 TSNO
PAWD 150053Z AUTO 18004KT 10SM FEW060 SCT120 14/12 A2980 RMK AO2 SLP092 T01390117 TSNO
PAWD 142353Z AUTO 16005KT 10SM FEW037 BKN100 14/12 A2980 RMK AO2 RAE2255 SLP090 P0000 60000 T01390117 10156 20128 51011 TSNO
PAWD 142253Z AUTO 18005KT 10SM -RA FEW055 OVC090 14/12 A2979 RMK AO2 RAB41 SLP088 P0000 T01440117 TSNO
PAWD 142153Z AUTO 15005KT 10SM SCT070 OVC090 14/11 A2977 RMK AO2 SLP082 T01440111 TSNO
PAWD 142053Z AUTO 19006KT 10SM OVC070 14/11 A2976 RMK AO2 SLP078 T01390111 53012 TSNO
PAWD 141953Z AUTO 19008KT 10SM OVC070 13/11 A2975 RMK AO2 SLP074 T01280111 TSNO
PAWD 141853Z AUTO 33003KT 10SM BKN100 16/11 A2973 RMK AO2 SLP069 T01560111 TSNO
PAWD 141753Z AUTO 35004KT 10SM BKN070 OVC110 13/12 A2973 RMK AO2 SLP067 T01330117 10133 20089 51007 TSNO
PAWD 141653Z AUTO VRB04KT 10SM OVC070 12/11 A2972 RMK AO2 SLP066 T01220111 TSNO
PAWD 141553Z AUTO 34004KT 10SM FEW070 SCT110 10/10 A2972 RMK AO2 SLP063 T01000100 TSNO